Time;durP1;ratioP1;P1;durP2;ratioP2;P2;SDS_P1;SDS_P2;PMS_P1;PMS_P2;Temp;Humidity;BMP_temperature;BMP_pressure;BME280_temperature;BME280_humidity;BME280_pressure;Samples;Min_cycle;Max_cycle;Signal;HPM_P1;HPM_P2
2021/06/29 00:00:15;;;;;;;9.07;8.17;;;;;;;19.06;80.28;100542.13;700768;28;1338;-50
2021/06/29 00:00:35;;;;;;;9.38;8.48;;;;;;;19.07;79.92;100533.28;700620;28;1117;-48
2021/06/29 00:00:56;;;;;;;9.60;8.67;;;;;;;19.08;80.18;100534.13;702261;28;1975;-49
2021/06/29 00:01:16;;;;;;;9.50;8.50;;;;;;;19.08;79.84;100544.72;701244;28;1371;-51
2021/06/29 00:01:36;;;;;;;9.13;8.30;;;;;;;19.10;79.99;100537.59;672971;28;4681;-51
2021/06/29 00:02:04;;;;;;;9.70;8.80;;;;;;;19.11;80.19;100547.25;697069;28;2908;-49
2021/06/29 00:02:24;;;;;;;9.30;8.43;;;;;;;19.10;80.13;100548.19;696663;28;2998;-49
2021/06/29 00:02:44;;;;;;;9.50;8.60;;;;;;;19.11;80.07;100552.56;696799;28;3696;-49
2021/06/29 00:03:07;;;;;;;9.70;8.70;;;;;;;19.12;79.82;100541.91;697278;28;1433;-48
2021/06/29 00:03:27;;;;;;;9.43;8.52;;;;;;;19.14;80.03;100547.13;696533;28;2665;-49
2021/06/29 00:03:47;;;;;;;9.60;8.70;;;;;;;19.12;80.63;100554.25;698954;28;1549;-49
2021/06/29 00:04:08;;;;;;;9.35;8.52;;;;;;;19.12;80.29;100551.63;701447;28;1325;-52
2021/06/29 00:04:28;;;;;;;9.30;8.50;;;;;;;19.13;79.94;100546.25;700362;28;1288;-48
2021/06/29 00:04:50;;;;;;;9.10;8.30;;;;;;;19.12;80.14;100541.91;697774;28;4542;-53
2021/06/29 00:05:11;;;;;;;9.55;8.65;;;;;;;19.10;80.25;100548.19;694529;28;1637;-48
2021/06/29 00:05:33;;;;;;;9.80;8.90;;;;;;;19.08;80.56;100544.72;696900;28;1314;-49
2021/06/29 00:05:53;;;;;;;9.93;9.02;;;;;;;19.05;80.88;100545.72;696853;28;2643;-50
2021/06/29 00:06:14;;;;;;;9.82;8.82;;;;;;;19.04;81.16;100550.16;696466;28;3598;-49
2021/06/29 00:06:34;;;;;;;10.30;8.77;;;;;;;19.03;81.19;100551.06;697561;28;979;-51
2021/06/29 00:06:54;;;;;;;10.10;9.10;;;;;;;19.04;81.04;100549.31;698516;28;1007;-49
2021/06/29 00:07:15;;;;;;;10.02;9.10;;;;;;;19.02;81.13;100549.38;701492;28;1011;-48
2021/06/29 00:07:35;;;;;;;9.53;8.63;;;;;;;18.99;81.20;100546.81;700201;28;4325;-48
2021/06/29 00:07:56;;;;;;;9.35;8.48;;;;;;;18.98;81.33;100545.13;700650;28;1071;-47
2021/06/29 00:08:17;;;;;;;9.88;8.90;;;;;;;18.96;81.49;100538.16;695384;28;1351;-49
2021/06/29 00:08:37;;;;;;;10.02;9.02;;;;;;;18.96;81.02;100544.31;695818;28;1195;-51
2021/06/29 00:08:58;;;;;;;9.80;8.90;;;;;;;18.95;81.56;100542.59;695841;28;1854;-50
2021/06/29 00:09:18;;;;;;;9.50;8.60;;;;;;;18.94;81.63;100540.00;694835;28;3729;-50
2021/06/29 00:09:38;;;;;;;9.70;8.80;;;;;;;18.92;81.84;100540.06;692303;28;1658;-48
2021/06/29 00:09:59;;;;;;;9.90;9.00;;;;;;;18.93;81.85;100541.78;691655;28;2805;-48
2021/06/29 00:10:19;;;;;;;9.57;8.68;;;;;;;18.94;81.67;100538.22;697818;28;1208;-52
2021/06/29 00:10:40;;;;;;;10.00;9.10;;;;;;;18.94;81.14;100537.34;696811;28;4481;-48
2021/06/29 00:11:00;;;;;;;9.80;8.80;;;;;;;18.92;81.73;100540.06;698676;28;1127;-51
2021/06/29 00:11:23;;;;;;;9.93;8.97;;;;;;;18.92;81.84;100529.47;698286;28;1245;-48
2021/06/29 00:11:44;;;;;;;10.13;9.13;;;;;;;18.93;81.19;100539.16;699607;28;1430;-52
2021/06/29 00:12:04;;;;;;;9.73;8.82;;;;;;;18.95;80.36;100534.63;695294;28;2048;-48
2021/06/29 00:12:25;;;;;;;9.40;8.27;;;;;;;18.98;80.42;100537.19;694844;28;1603;-48
2021/06/29 00:12:45;;;;;;;9.55;8.55;;;;;;;19.00;80.77;100534.47;695267;28;2997;-49
2021/06/29 00:13:06;;;;;;;9.37;8.47;;;;;;;19.02;80.71;100537.91;695355;28;1971;-53
2021/06/29 00:13:26;;;;;;;9.18;8.38;;;;;;;19.01;81.06;100534.41;696032;28;1829;-48
2021/06/29 00:13:46;;;;;;;9.57;8.67;;;;;;;19.00;81.00;100537.97;697290;28;4443;-50
2021/06/29 00:14:07;;;;;;;9.25;8.40;;;;;;;19.09;79.41;100528.75;701055;28;1138;-51
2021/06/29 00:14:28;;;;;;;9.07;8.17;;;;;;;19.12;80.70;100531.31;699793;28;1071;-49
2021/06/29 00:14:48;;;;;;;9.23;8.32;;;;;;;19.08;81.02;100526.16;700278;28;1683;-53
2021/06/29 00:15:09;;;;;;;9.80;8.55;;;;;;;19.05;81.12;100525.41;700955;28;1186;-48
2021/06/29 00:15:30;;;;;;;9.80;8.70;;;;;;;19.04;81.15;100528.13;699606;28;3626;-48
2021/06/29 00:15:50;;;;;;;9.80;8.90;;;;;;;19.03;81.21;100524.56;700425;28;1150;-52
2021/06/29 00:16:12;;;;;;;9.70;8.80;;;;;;;19.02;81.53;100524.66;698294;28;1510;-47
2021/06/29 00:16:33;;;;;;;10.00;9.00;;;;;;;19.02;81.21;100525.53;696842;28;4331;-48
2021/06/29 00:16:54;;;;;;;9.30;8.50;;;;;;;19.00;81.89;100527.38;699633;28;1584;-49
2021/06/29 00:17:14;;;;;;;9.50;8.60;;;;;;;19.03;80.30;100524.56;698413;28;1456;-49
2021/06/29 00:17:35;;;;;;;9.50;8.60;;;;;;;19.02;81.03;100528.19;699020;28;1226;-53
2021/06/29 00:17:56;;;;;;;9.77;8.87;;;;;;;19.01;80.60;100522.91;698994;28;1059;-50
2021/06/29 00:18:17;;;;;;;9.20;8.40;;;;;;;19.00;80.65;100524.72;700875;28;1446;-50
2021/06/29 00:18:37;;;;;;;8.90;8.10;;;;;;;19.01;80.10;100533.50;699296;28;2719;-51
2021/06/29 00:18:58;;;;;;;9.20;8.40;;;;;;;19.02;80.66;100527.28;701370;28;1309;-48
2021/06/29 00:19:19;;;;;;;9.53;8.63;;;;;;;19.00;81.01;100523.88;700023;28;4191;-51
2021/06/29 00:19:40;;;;;;;9.27;8.40;;;;;;;18.98;80.53;100523.06;699078;28;4427;-49
2021/06/29 00:20:00;;;;;;;9.27;8.40;;;;;;;18.99;80.17;100528.28;701549;28;1183;-50
2021/06/29 00:20:21;;;;;;;9.63;8.52;;;;;;;19.02;79.90;100524.66;700826;28;1229;-50
2021/06/29 00:20:42;;;;;;;8.85;7.85;;;;;;;19.09;79.59;100519.97;698213;28;1626;-51
2021/06/29 00:21:02;;;;;;;8.90;8.00;;;;;;;19.12;80.31;100523.34;698225;28;1416;-49
2021/06/29 00:21:23;;;;;;;9.18;8.38;;;;;;;19.11;80.68;100520.78;695581;28;1150;-51
2021/06/29 00:21:43;;;;;;;9.20;8.30;;;;;;;19.09;80.93;100525.25;695626;28;1125;-49
2021/06/29 00:22:04;;;;;;;9.38;8.55;;;;;;;19.02;81.11;100519.34;692623;28;4232;-48
2021/06/29 00:22:25;;;;;;;9.55;8.65;;;;;;;18.97;81.27;100527.50;692388;28;1200;-52
2021/06/29 00:22:46;;;;;;;9.13;8.32;;;;;;;18.95;80.92;100524.03;694646;28;4538;-52
2021/06/29 00:23:06;;;;;;;9.33;8.47;;;;;;;18.95;80.68;100523.19;693767;28;1316;-48
2021/06/29 00:23:26;;;;;;;9.45;8.60;;;;;;;18.94;81.01;100517.03;695136;28;1223;-49
2021/06/29 00:23:47;;;;;;;9.23;8.33;;;;;;;18.94;81.30;100517.03;694715;28;1371;-48
2021/06/29 00:24:07;;;;;;;9.45;8.57;;;;;;;18.95;81.42;100528.50;698453;28;1152;-50
2021/06/29 00:24:28;;;;;;;9.37;8.57;;;;;;;18.94;81.18;100513.50;697711;28;1175;-48
2021/06/29 00:24:48;;;;;;;9.38;8.48;;;;;;;18.94;81.32;100522.34;698595;28;1268;-51
2021/06/29 00:25:10;;;;;;;9.10;8.20;;;;;;;18.92;81.61;100521.53;700664;28;1921;-48
2021/06/29 00:25:31;;;;;;;9.35;8.55;;;;;;;18.93;81.51;100525.03;696486;28;4438;-50
2021/06/29 00:25:51;;;;;;;9.38;8.48;;;;;;;18.92;81.58;100521.53;697469;28;1635;-50
2021/06/29 00:26:11;;;;;;;9.40;8.50;;;;;;;18.94;81.60;100521.47;696533;28;1435;-49
2021/06/29 00:26:32;;;;;;;9.63;8.63;;;;;;;18.93;81.36;100520.59;698143;28;1521;-47
2021/06/29 00:26:53;;;;;;;9.30;8.40;;;;;;;18.93;81.70;100525.03;697875;28;1507;-49
2021/06/29 00:27:13;;;;;;;9.50;8.60;;;;;;;18.91;81.77;100516.31;698215;28;1452;-49
2021/06/29 00:27:33;;;;;;;9.97;8.97;;;;;;;18.89;81.50;100521.66;700166;28;1096;-50
2021/06/29 00:27:54;;;;;;;9.60;8.60;;;;;;;18.92;80.87;100518.03;698243;28;1050;-53
2021/06/29 00:28:15;;;;;;;8.87;7.93;;;;;;;18.96;80.73;100514.31;697785;28;3156;-48
2021/06/29 00:28:36;;;;;;;9.15;8.32;;;;;;;18.98;80.71;100513.34;696904;28;4565;-48
2021/06/29 00:28:58;;;;;;;9.00;8.10;;;;;;;18.99;80.71;100517.69;697281;28;3662;-47
2021/06/29 00:29:18;;;;;;;9.05;8.20;;;;;;;18.98;80.68;100518.63;696757;28;1082;-51
2021/06/29 00:29:39;;;;;;;9.23;8.32;;;;;;;18.97;80.96;100511.59;695535;28;1424;-52
2021/06/29 00:29:59;;;;;;;9.40;8.47;;;;;;;18.96;80.76;100517.81;698148;28;1063;-49
2021/06/29 00:30:20;;;;;;;9.23;8.43;;;;;;;18.95;81.21;100512.59;694711;28;1056;-52
2021/06/29 00:30:43;;;;;;;9.15;8.25;;;;;;;18.93;81.32;100511.78;695412;28;1590;-49
2021/06/29 00:31:04;;;;;;;9.10;8.27;;;;;;;18.94;81.47;100518.81;694816;28;1083;-50
2021/06/29 00:31:24;;;;;;;9.10;8.30;;;;;;;18.92;81.50;100518.88;694945;28;1675;-48
2021/06/29 00:31:45;;;;;;;9.40;8.50;;;;;;;18.96;80.18;100514.31;697525;28;4315;-48
2021/06/29 00:32:06;;;;;;;9.27;8.33;;;;;;;18.96;81.17;100514.31;698231;28;2835;-47
2021/06/29 00:32:26;;;;;;;9.30;8.27;;;;;;;18.95;80.76;100513.44;699667;28;1129;-49
2021/06/29 00:32:47;;;;;;;9.13;8.23;;;;;;;18.92;81.29;100524.19;700202;28;1154;-50
2021/06/29 00:33:07;;;;;;;9.70;8.70;;;;;;;18.90;81.42;100510.16;697927;28;1914;-48
2021/06/29 00:33:27;;;;;;;9.57;8.57;;;;;;;18.91;80.88;100518.94;697672;28;1285;-47
2021/06/29 00:33:49;;;;;;;9.30;8.40;;;;;;;18.92;81.27;100518.03;698201;28;1304;-51
2021/06/29 00:34:10;;;;;;;9.00;8.20;;;;;;;18.89;81.18;100513.72;698058;28;1393;-48
2021/06/29 00:34:31;;;;;;;8.95;8.15;;;;;;;18.90;80.71;100515.44;697336;28;4316;-49
2021/06/29 00:34:51;;;;;;;8.75;7.90;;;;;;;18.92;80.86;100513.59;697236;28;2016;-49
2021/06/29 00:35:12;;;;;;;8.97;8.07;;;;;;;18.92;81.35;100525.97;699914;28;2298;-49
2021/06/29 00:35:32;;;;;;;9.40;8.50;;;;;;;18.89;81.65;100513.72;699858;28;2380;-52
2021/06/29 00:35:53;;;;;;;9.37;8.57;;;;;;;18.89;81.48;100524.31;699834;28;1168;-47
2021/06/29 00:36:15;;;;;;;9.38;8.48;;;;;;;18.90;81.29;100523.41;701495;28;1027;-52
2021/06/29 00:36:36;;;;;;;9.32;8.43;;;;;;;18.90;81.19;100515.44;701009;28;1234;-50
2021/06/29 00:36:57;;;;;;;9.00;8.20;;;;;;;18.91;81.29;100516.31;701091;28;1376;-49
2021/06/29 00:37:17;;;;;;;9.23;8.33;;;;;;;18.89;81.30;100519.88;701358;28;1022;-48
2021/06/29 00:37:38;;;;;;;9.30;8.30;;;;;;;18.92;80.54;100523.31;700640;28;4486;-50
2021/06/29 00:37:59;;;;;;;8.77;7.88;;;;;;;18.94;80.61;100526.75;701047;28;1899;-48
2021/06/29 00:38:19;;;;;;;8.88;8.00;;;;;;;18.96;80.74;100524.91;700383;28;1230;-49
2021/06/29 00:38:39;;;;;;;8.83;8.03;;;;;;;18.97;80.43;100516.91;700561;28;2416;-49
2021/06/29 00:38:59;;;;;;;8.70;7.90;;;;;;;19.00;80.13;100521.22;700500;28;1053;-49
2021/06/29 00:39:20;;;;;;;8.50;7.70;;;;;;;19.01;80.03;100518.50;700961;28;1161;-49
2021/06/29 00:39:40;;;;;;;8.20;7.40;;;;;;;19.07;79.44;100521.81;701072;28;1138;-48
2021/06/29 00:40:03;;;;;;;8.27;7.47;;;;;;;19.12;79.46;100522.47;700490;28;1042;-53
2021/06/29 00:40:25;;;;;;;8.50;7.60;;;;;;;19.13;79.91;100524.19;700437;28;1731;-50
2021/06/29 00:40:46;;;;;;;8.43;7.63;;;;;;;19.13;79.59;100516.25;697019;28;4321;-51
2021/06/29 00:41:06;;;;;;;8.32;7.53;;;;;;;19.15;79.21;100525.88;697663;28;1110;-49
2021/06/29 00:41:30;;;;;;;8.02;7.32;;;;;;;19.26;77.92;100517.47;694694;28;2082;-49
2021/06/29 00:41:50;;;;;;;7.80;7.10;;;;;;;19.35;77.67;100526.78;694909;28;3027;-49
2021/06/29 00:42:11;;;;;;;8.23;7.43;;;;;;;19.39;77.08;100529.22;694813;28;1340;-48
2021/06/29 00:42:32;;;;;;;8.33;7.53;;;;;;;19.47;76.84;100531.56;695927;28;1238;-48
2021/06/29 00:42:52;;;;;;;8.63;7.80;;;;;;;19.51;76.41;100530.50;698412;28;1100;-51
2021/06/29 00:43:12;;;;;;;9.48;8.38;;;;;;;19.55;76.13;100533.88;698736;28;1087;-48
2021/06/29 00:43:33;;;;;;;8.80;7.90;;;;;;;19.60;76.04;100541.63;696290;28;4474;-50
2021/06/29 00:43:54;;;;;;;9.07;8.17;;;;;;;19.65;75.88;100542.28;697977;28;1138;-50
2021/06/29 00:44:19;;;;;;;8.98;8.07;;;;;;;19.70;75.98;100537.59;698241;28;1182;-49
2021/06/29 00:44:39;;;;;;;8.82;7.93;;;;;;;19.74;75.75;100536.53;697090;28;2672;-48
2021/06/29 00:44:59;;;;;;;8.80;8.00;;;;;;;19.73;77.36;100542.81;697851;28;3450;-48
2021/06/29 00:45:20;;;;;;;8.90;8.00;;;;;;;19.71;77.39;100532.22;698131;28;1729;-51
2021/06/29 00:45:40;;;;;;;8.48;7.68;;;;;;;19.71;77.68;100529.59;699418;28;1617;-51
2021/06/29 00:46:01;;;;;;;8.87;7.90;;;;;;;19.69;77.30;100535.91;700977;28;1256;-50
2021/06/29 00:46:21;;;;;;;9.00;8.07;;;;;;;19.65;78.27;100529.88;700079;28;1749;-48
2021/06/29 00:46:41;;;;;;;9.00;8.10;;;;;;;19.56;78.49;100540.88;700446;28;4542;-48
2021/06/29 00:47:02;;;;;;;9.20;8.30;;;;;;;19.48;79.11;100538.59;701244;28;1027;-50
2021/06/29 00:47:22;;;;;;;8.88;8.00;;;;;;;19.46;79.15;100536.94;700234;28;1293;-51
2021/06/29 00:47:43;;;;;;;8.40;7.60;;;;;;;19.48;78.11;100529.75;698299;28;1867;-50
2021/06/29 00:48:04;;;;;;;8.45;7.65;;;;;;;19.48;79.28;100532.41;698000;28;1690;-49
2021/06/29 00:48:24;;;;;;;8.68;7.70;;;;;;;19.46;78.56;100532.47;697443;28;4359;-48
2021/06/29 00:48:46;;;;;;;8.43;7.63;;;;;;;19.45;78.84;100535.19;697757;28;1278;-49
2021/06/29 00:49:06;;;;;;;8.30;7.53;;;;;;;19.46;78.37;100526.31;697248;28;1115;-48
2021/06/29 00:49:27;;;;;;;8.00;7.30;;;;;;;19.48;77.34;100535.06;699319;28;1213;-48
2021/06/29 00:49:47;;;;;;;8.10;7.30;;;;;;;19.54;76.97;100537.44;700010;28;4704;-50
2021/06/29 00:50:09;;;;;;;8.30;7.40;;;;;;;19.58;76.95;100539.03;701136;28;1590;-48
2021/06/29 00:50:29;;;;;;;8.00;7.20;;;;;;;19.59;77.90;100534.59;698253;28;968;-48
2021/06/29 00:50:50;;;;;;;8.35;7.53;;;;;;;19.58;78.23;100539.03;698451;28;1190;-49
2021/06/29 00:51:15;;;;;;;9.80;7.73;;;;;;;19.65;78.19;100529.03;697273;28;4073;-47
2021/06/29 00:51:35;;;;;;;8.77;7.90;;;;;;;19.77;77.76;100528.47;697565;28;2028;-52
2021/06/29 00:51:56;;;;;;;8.60;7.80;;;;;;;19.78;77.63;100537.28;697899;28;1256;-47
2021/06/29 00:52:17;;;;;;;8.50;7.70;;;;;;;19.71;78.18;100532.22;698443;28;1191;-49
2021/06/29 00:52:40;;;;;;;8.30;7.40;;;;;;;19.66;78.32;100523.66;700064;28;4555;-50
2021/06/29 00:53:00;;;;;;;8.70;7.80;;;;;;;19.59;78.67;100519.53;697358;28;1027;-50
2021/06/29 00:53:21;;;;;;;8.38;7.68;;;;;;;19.54;79.05;100530.34;697201;28;1923;-49
2021/06/29 00:53:45;;;;;;;8.70;7.90;;;;;;;19.80;78.30;100530.13;697924;28;1119;-51
2021/06/29 00:54:06;;;;;;;9.20;8.30;;;;;;;19.90;77.57;100526.16;696342;28;1832;-50
2021/06/29 00:54:26;;;;;;;9.40;8.60;;;;;;;19.82;77.55;100521.19;696848;28;1177;-50
2021/06/29 00:54:49;;;;;;;9.18;8.27;;;;;;;19.79;77.86;100520.44;698442;28;3492;-47
2021/06/29 00:55:13;;;;;;;8.43;7.63;;;;;;;19.74;78.23;100518.84;700075;28;1218;-48
2021/06/29 00:55:34;;;;;;;8.60;7.80;;;;;;;19.69;78.49;100512.91;699586;28;4524;-50
2021/06/29 00:55:55;;;;;;;8.90;8.00;;;;;;;19.59;78.67;100514.22;701255;28;1388;-48
2021/06/29 00:56:19;;;;;;;8.95;8.05;;;;;;;19.52;79.02;100510.13;699668;28;1069;-50
2021/06/29 00:56:40;;;;;;;9.52;8.68;;;;;;;19.46;79.19;100507.75;700664;28;1062;-49
2021/06/29 00:57:00;;;;;;;9.13;8.23;;;;;;;19.42;79.40;100514.97;701849;28;1078;-49
2021/06/29 00:57:21;;;;;;;9.23;8.27;;;;;;;19.37;79.78;100509.91;699988;28;3529;-49
2021/06/29 00:57:43;;;;;;;9.35;8.45;;;;;;;19.36;79.72;100513.47;697782;28;1290;-48
2021/06/29 00:58:12;;;;;;;9.05;8.25;;;;;;;19.34;79.01;100512.69;698275;28;2819;-49
2021/06/29 00:58:32;;;;;;;8.20;7.43;;;;;;;19.38;78.04;100510.75;696806;28;4372;-51
2021/06/29 00:58:53;;;;;;;7.90;7.13;;;;;;;19.43;77.47;100511.41;699532;28;1165;-48
2021/06/29 00:59:13;;;;;;;8.05;7.25;;;;;;;19.49;77.11;100508.47;698077;28;1457;-49
2021/06/29 00:59:34;;;;;;;8.10;7.40;;;;;;;19.50;78.44;100509.34;699260;28;1118;-50
2021/06/29 00:59:54;;;;;;;8.25;7.45;;;;;;;19.49;78.18;100513.78;701072;28;1348;-48
2021/06/29 01:00:15;;;;;;;8.13;7.20;;;;;;;19.50;77.89;100519.97;697520;28;1345;-50
2021/06/29 01:00:41;;;;;;;8.15;6.85;;;;;;;19.49;78.22;100511.13;696507;28;2198;-50
2021/06/29 01:01:01;;;;;;;8.55;7.75;;;;;;;19.45;79.67;100517.50;696995;28;2054;-49
2021/06/29 01:01:21;;;;;;;8.67;7.83;;;;;;;19.44;79.21;100515.78;696545;28;1672;-49
2021/06/29 01:01:42;;;;;;;8.50;7.60;;;;;;;19.45;78.11;100514.00;696633;28;4338;-50
2021/06/29 01:02:02;;;;;;;7.90;7.10;;;;;;;19.48;78.20;100516.50;694943;28;1226;-48
2021/06/29 01:02:27;;;;;;;9.30;8.23;;;;;;;19.44;79.34;100518.44;697722;28;1225;-48
2021/06/29 01:02:47;;;;;;;10.23;8.55;;;;;;;19.40;79.87;100514.19;696428;28;1149;-48
2021/06/29 01:03:08;;;;;;;9.57;7.70;;;;;;;19.39;79.89;100520.41;697740;28;1237;-48
2021/06/29 01:03:29;;;;;;;8.65;7.82;;;;;;;19.41;79.97;100515.91;697332;28;1107;-48
2021/06/29 01:03:49;;;;;;;8.80;7.90;;;;;;;19.40;79.85;100515.06;698606;28;2405;-49
2021/06/29 01:04:09;;;;;;;8.57;7.78;;;;;;;19.40;79.30;100520.34;699824;28;1193;-48
2021/06/29 01:04:32;;;;;;;8.03;7.23;;;;;;;19.44;78.54;100520.22;700090;28;3610;-47
2021/06/29 01:04:52;;;;;;;7.80;7.10;;;;;;;19.43;79.04;100511.41;699504;28;4686;-51
2021/06/29 01:05:13;;;;;;;8.40;7.60;;;;;;;19.43;79.54;100514.06;700774;28;1360;-48
2021/06/29 01:05:34;;;;;;;8.10;7.30;;;;;;;19.42;79.66;100520.28;699714;28;1802;-48
2021/06/29 01:05:54;;;;;;;8.57;7.60;;;;;;;19.38;80.35;100516.94;701205;28;1083;-48
2021/06/29 01:06:15;;;;;;;8.52;7.63;;;;;;;19.37;79.01;100516.97;700528;28;1360;-50
2021/06/29 01:06:37;;;;;;;7.95;7.15;;;;;;;19.43;78.90;100523.81;700135;28;1225;-48
2021/06/29 01:06:58;;;;;;;8.52;7.60;;;;;;;19.40;80.18;100520.34;700159;28;1335;-49
2021/06/29 01:07:19;;;;;;;9.00;7.75;;;;;;;19.40;80.19;100517.69;698372;28;3830;-50
2021/06/29 01:07:41;;;;;;;8.70;7.88;;;;;;;19.37;80.04;100520.50;699486;28;5397;-47
2021/06/29 01:08:01;;;;;;;8.80;7.90;;;;;;;19.35;81.18;100518.84;699987;28;1178;-50
2021/06/29 01:08:22;;;;;;;8.68;7.88;;;;;;;19.31;81.24;100525.19;698249;28;1318;-47
2021/06/29 01:08:42;;;;;;;9.15;8.25;;;;;;;19.28;81.15;100525.34;697944;28;1353;-50
2021/06/29 01:09:03;;;;;;;9.10;8.10;;;;;;;19.26;81.27;100524.53;696880;28;1636;-49
2021/06/29 01:09:24;;;;;;;9.45;8.38;;;;;;;19.24;81.37;100524.59;695462;28;1516;-49
2021/06/29 01:09:44;;;;;;;9.25;8.25;;;;;;;19.21;81.63;100519.44;694010;28;3667;-47
2021/06/29 01:10:08;;;;;;;9.10;8.20;;;;;;;19.18;82.26;100516.94;696064;28;1173;-48
2021/06/29 01:10:29;;;;;;;8.80;7.95;;;;;;;19.16;81.75;100510.81;697358;28;3117;-49
2021/06/29 01:10:49;;;;;;;8.80;7.90;;;;;;;19.14;81.87;100512.69;696134;28;4515;-50
2021/06/29 01:11:10;;;;;;;8.93;8.03;;;;;;;19.12;81.81;100514.53;694908;28;1690;-48
2021/06/29 01:11:31;;;;;;;8.77;7.82;;;;;;;19.11;81.53;100515.47;697382;28;1446;-49
2021/06/29 01:11:52;;;;;;;9.30;7.65;;;;;;;19.15;80.46;100517.91;697353;28;1556;-47
2021/06/29 01:12:12;;;;;;;8.30;7.47;;;;;;;19.27;79.34;100513.84;697294;28;1068;-49
2021/06/29 01:12:37;;;;;;;8.53;7.63;;;;;;;19.33;78.74;100513.59;697534;28;1266;-49
2021/06/29 01:12:57;;;;;;;8.45;7.53;;;;;;;19.42;78.23;100514.97;697551;28;1090;-48
2021/06/29 01:13:38;;;;;;;8.40;7.50;;;;;;;19.45;78.25;100524.59;700579;28;1910;-48
2021/06/29 01:14:10;;;;;;;8.88;7.97;;;;;;;19.40;79.61;100519.50;696605;28;5223;-53
2021/06/29 01:14:31;;;;;;;8.70;7.80;;;;;;;19.36;78.70;100513.47;693700;28;1361;-47
2021/06/29 01:14:51;;;;;;;8.88;7.90;;;;;;;19.39;78.56;100520.41;695060;28;1226;-49
2021/06/29 01:15:12;;;;;;;8.43;7.60;;;;;;;19.37;79.87;100519.63;694415;28;1040;-49
2021/06/29 01:15:32;;;;;;;9.00;8.10;;;;;;;19.31;80.37;100518.09;695011;28;1266;-49
2021/06/29 01:15:55;;;;;;;9.17;8.23;;;;;;;19.28;80.47;100517.38;696999;28;1374;-49
2021/06/29 01:16:15;;;;;;;8.70;7.80;;;;;;;19.26;80.67;100525.41;697493;28;1050;-48
2021/06/29 01:16:36;;;;;;;8.90;8.00;;;;;;;19.23;80.73;100514.91;696330;28;4997;-51
2021/06/29 01:16:57;;;;;;;9.80;8.27;;;;;;;19.22;80.70;100515.88;698682;28;2066;-51
2021/06/29 01:17:18;;;;;;;9.32;8.50;;;;;;;19.20;80.77;100517.69;697972;28;1293;-48
2021/06/29 01:17:38;;;;;;;9.37;8.50;;;;;;;19.21;80.38;100519.44;696920;28;2378;-51
2021/06/29 01:18:01;;;;;;;8.90;8.00;;;;;;;19.24;79.31;100521.94;698252;28;1339;-48
2021/06/29 01:18:21;;;;;;;8.57;7.75;;;;;;;19.28;79.37;100517.38;696210;28;1118;-50
2021/06/29 01:18:44;;;;;;;8.73;7.77;;;;;;;19.26;80.16;100514.81;696063;28;1059;-50
2021/06/29 01:19:04;;;;;;;9.07;8.18;;;;;;;19.22;80.78;100527.31;695756;28;1536;-49
2021/06/29 01:19:35;;;;;;;9.23;8.33;;;;;;;19.19;81.09;100516.84;696667;28;1253;-50
2021/06/29 01:19:55;;;;;;;9.07;8.18;;;;;;;19.17;81.30;100516.03;697340;28;5032;-50
2021/06/29 01:20:21;;;;;;;8.70;7.90;;;;;;;19.15;80.42;100524.97;699747;28;4329;-51
2021/06/29 01:20:42;;;;;;;8.30;7.50;;;;;;;19.21;79.73;100512.34;697854;28;2817;-50
2021/06/29 01:21:04;;;;;;;8.57;7.70;;;;;;;19.19;80.78;100518.63;698932;28;1093;-50
2021/06/29 01:21:25;;;;;;;9.10;7.85;;;;;;;19.18;80.29;100519.56;698394;28;1040;-48
2021/06/29 01:21:47;;;;;;;8.60;7.73;;;;;;;19.19;80.28;100511.56;698898;28;1004;-49
2021/06/29 01:22:09;;;;;;;8.60;7.70;;;;;;;19.21;79.65;100520.28;699041;28;1377;-49
2021/06/29 01:22:29;;;;;;;8.10;7.25;;;;;;;19.28;78.67;100515.59;699539;28;1343;-48
2021/06/29 01:22:52;;;;;;;8.50;7.60;;;;;;;19.32;79.54;100511.88;697606;28;5452;-49
2021/06/29 01:23:19;;;;;;;8.70;7.85;;;;;;;19.30;79.64;100519.03;694087;28;1111;-49
2021/06/29 01:23:41;;;;;;;8.48;7.68;;;;;;;19.31;79.00;100515.44;694464;28;4064;-49
2021/06/29 01:24:03;;;;;;;8.55;7.75;;;;;;;19.34;78.25;100517.97;695391;28;1540;-49
2021/06/29 01:24:33;;;;;;;8.73;7.82;;;;;;;19.30;80.12;100518.16;694529;28;1325;-48
2021/06/29 01:24:56;;;;;;;8.23;7.43;;;;;;;19.29;79.04;100512.00;697567;28;1703;-49
2021/06/29 01:25:17;;;;;;;8.10;7.30;;;;;;;19.30;80.14;100520.81;701299;28;1523;-49
2021/06/29 01:25:39;;;;;;;8.32;7.53;;;;;;;19.27;79.25;100524.44;696317;28;4298;-49
2021/06/29 01:26:23;;;;;;;8.85;7.97;;;;;;;19.23;79.56;100514.91;697898;28;1075;-48
2021/06/29 01:26:50;;;;;;;9.02;8.13;;;;;;;19.21;80.42;100522.09;698965;28;3318;-49
2021/06/29 01:27:42;;;;;;;9.73;8.52;;;;;;;19.21;80.36;100516.78;698233;28;1357;-49
2021/06/29 01:28:18;;;;;;;8.63;7.70;;;;;;;19.30;79.67;100519.03;701115;28;1022;-52
2021/06/29 01:29:20;;;;;;;8.73;7.82;;;;;;;19.24;79.29;100511.34;700613;28;1365;-48
2021/06/29 01:31:25;;;;;;;8.10;7.30;;;;;;;19.17;79.68;100502.78;701048;28;1148;-48
2021/06/29 01:31:39;;;;;;;8.65;7.75;;;;;;;19.12;80.56;100517.16;697540;28;4294;-48
2021/06/29 01:31:59;;;;;;;8.77;7.72;;;;;;;19.11;80.58;100518.13;701334;28;1126;-48
2021/06/29 01:32:20;;;;;;;7.83;7.10;;;;;;;19.07;80.28;100516.53;700808;28;1078;-48
2021/06/29 01:32:40;;;;;;;8.48;7.22;;;;;;;19.02;80.75;100514.94;701571;28;1015;-48
2021/06/29 01:33:01;;;;;;;8.23;7.33;;;;;;;19.01;81.05;100522.91;700906;28;2361;-48
2021/06/29 01:33:21;;;;;;;8.50;7.70;;;;;;;18.98;81.02;100518.63;700305;28;2307;-48
2021/06/29 01:33:42;;;;;;;8.00;7.23;;;;;;;18.99;80.18;100515.03;697852;28;1359;-49
2021/06/29 01:34:04;;;;;;;8.02;7.30;;;;;;;19.02;80.38;100516.69;698112;28;1449;-49
2021/06/29 01:34:25;;;;;;;8.30;7.40;;;;;;;19.00;80.43;100511.47;697980;28;1067;-48
2021/06/29 01:34:46;;;;;;;8.40;7.50;;;;;;;18.99;80.63;100512.38;697816;28;4310;-48
2021/06/29 01:35:09;;;;;;;8.20;7.32;;;;;;;18.95;80.90;100512.59;698021;28;1146;-49
2021/06/29 01:35:29;;;;;;;8.55;7.30;;;;;;;18.97;79.91;100513.38;699214;28;1016;-48
2021/06/29 01:35:51;;;;;;;8.20;7.40;;;;;;;19.05;79.29;100508.63;700779;28;1257;-49
2021/06/29 01:36:22;;;;;;;8.10;7.22;;;;;;;19.03;80.50;100511.34;700636;28;2698;-48
2021/06/29 01:36:43;;;;;;;8.10;7.30;;;;;;;18.99;80.22;100507.09;700820;28;1985;-50
2021/06/29 01:37:03;;;;;;;7.90;7.10;;;;;;;19.01;79.65;100507.91;700308;28;1321;-48
2021/06/29 01:37:24;;;;;;;7.93;7.10;;;;;;;19.05;79.74;100508.63;699730;28;1420;-49
2021/06/29 01:37:45;;;;;;;8.07;7.27;;;;;;;19.09;79.11;100509.34;701347;28;4440;-49
2021/06/29 01:38:05;;;;;;;8.00;7.20;;;;;;;19.13;79.19;100516.25;701088;28;1149;-50
2021/06/29 01:38:26;;;;;;;7.90;7.20;;;;;;;19.18;78.12;100515.13;700722;28;1090;-47
2021/06/29 01:38:47;;;;;;;7.95;7.15;;;;;;;19.23;77.61;100510.50;697896;28;1213;-48
2021/06/29 01:39:10;;;;;;;8.20;7.50;;;;;;;19.29;78.24;100521.75;698222;28;1155;-47
2021/06/29 01:39:30;;;;;;;8.65;7.75;;;;;;;19.29;78.60;100514.66;698301;28;2262;-48
2021/06/29 01:40:08;;;;;;;8.20;7.30;;;;;;;19.27;78.59;100513.00;697287;28;2154;-51
2021/06/29 01:40:31;;;;;;;8.13;7.00;;;;;;;19.32;77.69;100518.97;697106;28;1320;-49
2021/06/29 01:40:52;;;;;;;8.00;7.20;;;;;;;19.38;77.11;100510.75;698161;28;4828;-51
2021/06/29 01:41:19;;;;;;;8.02;7.28;;;;;;;19.47;76.75;100512.16;698415;28;1066;-49
2021/06/29 01:41:39;;;;;;;8.25;7.10;;;;;;;19.53;76.17;100506.56;697625;28;1156;-48
2021/06/29 01:41:59;;;;;;;8.00;7.00;;;;;;;19.55;76.19;100510.03;698040;28;1071;-49
2021/06/29 01:42:20;;;;;;;8.93;7.10;;;;;;;19.62;75.87;100513.22;697874;28;1512;-48
2021/06/29 01:42:40;;;;;;;8.67;7.03;;;;;;;19.65;75.63;100518.41;698912;28;4260;-49
2021/06/29 01:43:01;;;;;;;7.57;6.77;;;;;;;19.69;75.58;100517.34;697542;28;2349;-51
2021/06/29 01:43:33;;;;;;;8.00;7.20;;;;;;;19.72;75.41;100518.06;698136;28;1445;-49
2021/06/29 01:44:01;;;;;;;7.80;7.00;;;;;;;19.74;75.25;100524.16;694625;28;4799;-48
2021/06/29 01:44:31;;;;;;;8.27;6.80;;;;;;;19.76;75.65;100523.22;695699;28;1114;-48
2021/06/29 01:44:51;;;;;;;8.32;7.22;;;;;;;19.69;77.42;100526.16;694899;28;1843;-50
2021/06/29 01:45:12;;;;;;;7.90;7.10;;;;;;;19.68;76.22;100520.91;695408;28;1127;-48
2021/06/29 01:45:33;;;;;;;8.23;7.30;;;;;;;19.68;76.60;100524.44;693452;28;1401;-50